createdAt,value
2019-02-19T07:31:52.766Z,20.10
2019-02-19T07:34:21.231Z,16.70
2019-02-19T07:36:49.726Z,13.50
2019-02-19T07:39:18.286Z,11.70
2019-02-19T07:41:46.841Z,10.10
2019-02-19T07:44:15.340Z,9.20
2019-02-19T07:46:43.802Z,8.60
2019-02-19T07:49:12.299Z,8.20
2019-02-19T07:51:42.652Z,8.10
2019-02-19T07:54:10.921Z,8.10
2019-02-19T07:56:39.693Z,7.90
2019-02-19T07:59:08.537Z,7.90
2019-02-19T08:01:37.036Z,8.00
2019-02-19T08:04:05.505Z,8.20
2019-02-19T08:06:34.207Z,8.40
2019-02-19T08:09:03.757Z,8.60
2019-02-19T08:11:32.258Z,8.60
2019-02-19T08:14:00.762Z,8.80
2019-02-19T08:16:29.267Z,8.90
2019-02-19T08:18:57.780Z,9.10
2019-02-19T08:21:26.264Z,9.20
2019-02-19T08:23:54.772Z,9.30
2019-02-19T08:26:23.261Z,9.50
2019-02-19T08:28:51.739Z,9.70
2019-02-19T08:31:20.237Z,9.70
2019-02-19T08:33:48.712Z,9.70
2019-02-19T08:36:17.226Z,9.80
2019-02-19T08:38:45.711Z,9.80
2019-02-19T08:41:14.224Z,9.80
2019-02-19T08:43:42.709Z,9.90
2019-02-19T08:46:11.197Z,9.90
2019-02-19T08:48:39.691Z,10.10
2019-02-19T08:51:08.255Z,10.20
2019-02-19T08:53:36.757Z,10.20
2019-02-19T08:56:05.234Z,10.40
2019-02-19T08:58:33.752Z,10.50
2019-02-19T09:01:02.250Z,10.40
2019-02-19T09:03:30.736Z,10.80
2019-02-19T09:06:06.482Z,10.80
2019-02-19T09:08:35.001Z,11.10
2019-02-19T09:11:03.482Z,11.60
2019-02-19T09:13:31.991Z,11.90
2019-02-19T09:16:00.496Z,12.20
2019-02-19T09:18:28.980Z,11.90
2019-02-19T09:20:57.502Z,12.00
2019-02-19T09:23:25.987Z,12.10
2019-02-19T09:25:54.481Z,12.60
2019-02-19T09:28:22.990Z,13.30
2019-02-19T09:30:51.477Z,13.60
2019-02-19T09:33:20.007Z,13.80
2019-02-19T09:35:48.493Z,14.10
2019-02-19T09:38:16.999Z,14.30
2019-02-19T09:40:45.483Z,14.60
2019-02-19T09:43:14.016Z,15.00
2019-02-19T09:45:42.494Z,15.20
2019-02-19T09:57:34.536Z,16.10
2019-02-19T10:00:04.278Z,16.60
2019-02-19T10:02:32.918Z,16.70
2019-02-19T10:05:01.715Z,16.60
2019-02-19T10:07:37.153Z,16.90
2019-02-19T10:10:23.764Z,17.10
2019-02-19T10:12:58.425Z,17.30
2019-02-19T10:15:39.303Z,18.20
2019-02-19T10:18:27.420Z,18.60
2019-02-19T10:21:15.189Z,18.90
2019-02-19T10:23:53.034Z,19.60
2019-02-19T10:26:35.601Z,18.40
2019-02-19T10:29:05.698Z,18.50
2019-02-19T10:31:34.223Z,18.60
2019-02-19T10:34:20.429Z,19.40
2019-02-19T10:37:03.867Z,19.50
2019-02-19T10:39:38.818Z,20.00
2019-02-19T10:42:08.930Z,20.70
2019-02-19T10:44:37.575Z,20.20
2019-02-19T10:47:06.395Z,20.80
2019-02-19T10:49:46.779Z,20.60
2019-02-19T10:55:09.145Z,21.10
2019-02-19T10:57:43.478Z,21.30
2019-02-19T11:03:21.767Z,21.70
2019-02-19T11:06:03.726Z,21.60
2019-02-19T11:08:35.882Z,21.50
2019-02-19T11:11:04.770Z,21.60
2019-02-19T11:13:34.106Z,20.30
2019-02-19T11:16:03.472Z,21.20
2019-02-19T11:18:32.202Z,22.10
2019-02-19T11:21:05.471Z,21.70
2019-02-19T11:23:34.065Z,22.50
2019-02-19T11:26:02.758Z,22.90
2019-02-19T11:28:31.683Z,23.20
2019-02-19T11:31:00.313Z,21.50
2019-02-19T11:33:29.014Z,21.50
2019-02-19T11:35:58.385Z,21.60
2019-02-19T11:38:26.880Z,21.70
2019-02-19T11:40:55.502Z,20.10
2019-02-19T11:43:24.812Z,21.20
2019-02-19T11:45:53.482Z,20.90
2019-02-19T11:48:25.006Z,22.20
2019-02-19T11:50:53.592Z,22.50
2019-02-19T11:53:22.350Z,22.10
2019-02-19T11:55:50.906Z,22.50
2019-02-19T11:58:19.993Z,22.80
2019-02-19T12:03:36.250Z,22.50
2019-02-19T12:06:06.562Z,21.30
2019-02-19T12:08:39.119Z,19.90
2019-02-19T12:11:05.213Z,19.00
2019-02-19T12:13:36.812Z,18.30
2019-02-19T12:16:05.345Z,18.10
2019-02-19T12:18:33.961Z,18.30
2019-02-19T12:21:02.447Z,18.20
2019-02-19T12:23:30.964Z,18.10
2019-02-19T12:25:59.473Z,18.20
2019-02-19T12:28:27.947Z,18.30
2019-02-19T12:30:56.562Z,18.20
2019-02-19T12:33:25.054Z,18.40
2019-02-19T12:35:53.593Z,18.40
2019-02-19T12:38:22.093Z,18.40
2019-02-19T12:40:50.632Z,18.40
2019-02-19T12:43:19.123Z,18.20
2019-02-19T12:45:47.692Z,18.20
2019-02-19T12:48:20.987Z,18.50
2019-02-19T12:50:49.470Z,18.70
2019-02-19T12:53:17.998Z,18.70
2019-02-19T12:55:46.511Z,18.80
2019-02-19T12:58:14.998Z,19.30
2019-02-19T13:00:43.497Z,19.10
2019-02-19T13:03:11.989Z,19.30
2019-02-19T13:05:40.480Z,19.30
2019-02-19T13:08:08.972Z,19.40
2019-02-19T13:10:37.512Z,19.30
2019-02-19T13:13:05.988Z,19.60
2019-02-19T13:15:34.466Z,19.90
2019-02-19T13:18:02.965Z,20.10
2019-02-19T13:20:31.471Z,19.70
2019-02-19T13:23:00.021Z,19.90
2019-02-19T13:25:28.520Z,20.20
2019-02-19T13:27:57.094Z,20.60
2019-02-19T13:30:25.609Z,20.40
2019-02-19T13:32:54.189Z,20.30
2019-02-19T13:35:22.688Z,20.60
2019-02-19T13:37:51.191Z,21.00
2019-02-19T13:40:20.303Z,21.20
2019-02-19T13:42:48.912Z,21.20
2019-02-19T13:45:17.392Z,22.00
2019-02-19T13:47:45.941Z,22.70
2019-02-19T13:50:25.498Z,22.90
2019-02-19T13:52:55.681Z,23.70
2019-02-19T13:55:25.790Z,24.30
2019-02-19T13:57:54.335Z,24.10
2019-02-19T14:00:24.734Z,23.80
2019-02-19T14:02:56.333Z,23.30
2019-02-19T14:05:24.893Z,23.10
2019-02-19T14:07:53.378Z,22.80
2019-02-19T14:10:23.740Z,23.00
2019-02-19T14:12:52.419Z,23.60
2019-02-19T14:15:31.614Z,23.60
2019-02-19T14:18:02.854Z,23.20
2019-02-19T14:20:33.056Z,23.00
2019-02-19T14:23:18.277Z,22.70
2019-02-19T14:25:48.677Z,22.10
2019-02-19T14:28:18.896Z,22.70
2019-02-19T14:30:55.068Z,23.20
2019-02-19T14:33:31.182Z,23.40
2019-02-19T14:36:01.873Z,23.40
2019-02-19T14:38:48.684Z,22.20
2019-02-19T14:41:24.833Z,22.30
2019-02-19T14:44:00.852Z,21.80
2019-02-19T14:46:33.959Z,21.80
2019-02-19T14:49:06.956Z,22.00
2019-02-19T14:51:55.323Z,22.00
2019-02-19T14:54:37.621Z,21.80
2019-02-19T14:57:13.465Z,21.60
2019-02-19T15:00:00.641Z,21.30
2019-02-19T15:02:45.860Z,21.80
2019-02-19T15:05:31.444Z,21.80
2019-02-19T15:08:01.591Z,21.90
2019-02-19T15:10:43.782Z,22.40
2019-02-19T15:13:14.004Z,22.40
2019-02-19T15:15:56.097Z,22.40
2019-02-19T15:18:27.936Z,22.30
2019-02-19T15:21:13.357Z,22.10
2019-02-19T15:23:52.444Z,22.10
2019-02-19T15:26:25.275Z,22.00
2019-02-19T15:29:01.248Z,22.00
2019-02-19T15:31:34.278Z,22.20
2019-02-19T15:34:04.455Z,22.80
2019-02-19T15:36:50.792Z,22.90
2019-02-19T15:39:20.920Z,21.80
2019-02-19T15:41:53.800Z,21.40
2019-02-19T15:44:26.910Z,21.10
2019-02-19T15:46:59.704Z,20.80
2019-02-19T15:49:29.857Z,19.90
2019-02-19T15:52:05.957Z,19.10
2019-02-19T15:54:51.002Z,18.60
2019-02-19T15:57:23.813Z,18.10
2019-02-19T16:00:05.963Z,17.70
2019-02-19T16:02:38.968Z,17.30
2019-02-19T16:05:09.129Z,16.90
2019-02-19T16:07:44.954Z,16.60
2019-02-19T16:10:17.867Z,16.30
2019-02-19T16:12:57.251Z,16.00
2019-02-19T16:15:42.371Z,15.90
2019-02-19T16:18:27.515Z,15.90
2019-02-19T16:21:03.245Z,15.80
2019-02-19T16:23:35.014Z,15.70
2019-02-19T16:26:21.462Z,15.50
2019-02-19T16:28:54.397Z,15.30
2019-02-19T16:31:42.700Z,15.10
2019-02-19T16:34:18.585Z,15.00
2019-02-19T16:36:52.520Z,14.90
2019-02-19T16:39:27.752Z,14.90
2019-02-19T16:42:16.099Z,14.90
2019-02-19T16:45:02.610Z,14.80
2019-02-19T16:47:50.792Z,14.80
2019-02-19T16:50:21.005Z,14.30
2019-02-19T16:52:51.292Z,13.70
2019-02-19T16:55:21.455Z,13.40
2019-02-19T16:57:57.729Z,13.10
2019-02-19T17:00:39.791Z,12.90
2019-02-19T17:03:12.869Z,12.70
2019-02-19T17:05:43.399Z,12.30
2019-02-19T17:08:33.807Z,12.10
2019-02-19T17:11:14.712Z,11.90
2019-02-19T17:13:48.289Z,11.70
2019-02-19T17:16:21.362Z,11.60
2019-02-19T17:18:51.663Z,11.40
2019-02-19T17:21:34.047Z,11.40
2019-02-19T17:24:05.513Z,11.30
2019-02-19T17:26:51.804Z,11.10
2019-02-19T17:29:27.935Z,10.90
2019-02-19T17:31:58.531Z,10.90
2019-02-19T17:34:43.681Z,10.80
2019-02-19T17:37:19.670Z,10.80
2019-02-19T17:39:49.803Z,10.60
2019-02-19T17:42:25.752Z,10.60
2019-02-19T17:45:12.114Z,10.60
2019-02-19T17:47:42.326Z,10.60
2019-02-19T17:50:20.392Z,10.50
2019-02-19T17:52:59.315Z,10.50
2019-02-19T17:55:34.141Z,10.40
2019-02-19T17:58:16.529Z,10.50
2019-02-19T18:01:03.037Z,10.50
2019-02-19T18:03:33.276Z,10.40
2019-02-19T18:06:13.708Z,10.30
2019-02-19T18:08:49.046Z,10.30
2019-02-19T18:11:22.093Z,10.30
2019-02-19T18:13:52.232Z,10.30
2019-02-19T18:16:26.451Z,10.30
2019-02-19T18:18:55.040Z,10.20
2019-02-19T18:24:17.742Z,10.00
2019-02-19T18:26:48.345Z,9.90
2019-02-19T18:29:20.443Z,9.70
2019-02-19T18:31:49.009Z,9.60
2019-02-19T18:34:19.714Z,9.50
2019-02-19T18:36:48.320Z,9.40
2019-02-19T18:39:19.854Z,9.30
2019-02-19T18:41:48.459Z,9.40
2019-02-19T18:44:17.174Z,9.40
2019-02-19T18:46:45.680Z,9.30
2019-02-19T18:49:19.089Z,9.30
2019-02-19T18:51:47.760Z,9.30
2019-02-19T18:54:16.401Z,9.30
2019-02-19T18:56:45.192Z,9.30
2019-02-19T18:59:14.624Z,9.20
2019-02-19T19:01:43.199Z,9.00
2019-02-19T19:04:16.244Z,8.90
2019-02-19T19:06:46.569Z,8.80
2019-02-19T19:09:18.247Z,8.80
2019-02-19T19:11:46.786Z,8.70
2019-02-19T19:14:15.545Z,8.80
2019-02-19T19:16:44.306Z,8.90
2019-02-19T19:19:12.811Z,9.10
2019-02-19T19:21:44.521Z,9.10
2019-02-19T19:24:21.759Z,9.00
2019-02-19T19:26:50.276Z,8.90
2019-02-19T19:29:41.772Z,8.90
2019-02-19T19:32:12.882Z,8.90
2019-02-19T19:34:41.433Z,9.00
2019-02-19T19:37:11.796Z,9.00
2019-02-19T19:39:40.713Z,8.90
2019-02-19T19:42:09.246Z,8.90
2019-02-19T19:44:41.091Z,8.90
2019-02-19T19:47:15.468Z,8.70
2019-02-19T19:49:44.261Z,8.70
2019-02-19T19:52:12.747Z,8.60
2019-02-19T19:54:41.364Z,8.60
2019-02-19T19:57:09.986Z,8.60
2019-02-19T19:59:47.459Z,8.50
2019-02-19T20:02:20.001Z,8.50
2019-02-19T20:04:55.927Z,8.50
2019-02-19T20:07:24.552Z,8.40
2019-02-19T20:10:38.834Z,8.30
2019-02-19T20:13:11.178Z,8.30
2019-02-19T20:15:43.075Z,8.20
2019-02-19T20:18:19.957Z,8.10
2019-02-19T20:23:51.293Z,8.00
2019-02-19T20:26:22.258Z,8.00
2019-02-19T20:28:50.461Z,7.90
2019-02-19T20:31:19.059Z,7.90
2019-02-19T20:33:48.048Z,7.90
2019-02-19T20:36:20.976Z,7.90
2019-02-19T20:38:53.773Z,7.80
2019-02-19T20:41:25.221Z,7.80
2019-02-19T20:43:55.763Z,7.80
2019-02-19T20:46:36.428Z,7.60
2019-02-19T20:49:05.970Z,7.60
2019-02-19T20:51:36.720Z,7.50
2019-02-19T20:54:05.394Z,7.60
2019-02-19T20:56:33.983Z,7.60
2019-02-19T20:59:02.607Z,7.60
2019-02-19T21:01:31.267Z,7.60
2019-02-19T21:03:59.870Z,7.60
2019-02-19T21:06:28.619Z,7.50
2019-02-19T21:08:59.807Z,7.50
2019-02-19T21:11:28.520Z,7.50
2019-02-19T21:13:57.355Z,7.50
2019-02-19T21:16:25.865Z,7.40
2019-02-19T21:18:54.656Z,7.40
2019-02-19T21:21:23.337Z,7.40
2019-02-19T21:23:52.010Z,7.50
2019-02-19T21:26:26.599Z,7.50
2019-02-19T21:29:02.193Z,7.50
2019-02-19T21:31:37.335Z,7.40
2019-02-19T21:34:12.571Z,7.40
2019-02-19T21:36:43.149Z,7.30
2019-02-19T21:39:16.028Z,7.20
2019-02-19T21:41:47.539Z,7.30
2019-02-19T21:44:16.240Z,7.30
2019-02-19T21:46:57.599Z,7.30
2019-02-19T21:49:37.350Z,7.30
2019-02-19T21:52:08.459Z,7.20
2019-02-19T21:54:59.926Z,7.20
2019-02-19T21:57:30.569Z,7.20
2019-02-19T22:00:23.975Z,7.00
2019-02-19T22:02:54.619Z,6.90
2019-02-19T22:05:29.578Z,6.80
2019-02-19T22:08:03.819Z,6.90
2019-02-19T22:10:40.939Z,6.90
2019-02-19T22:13:10.274Z,7.00
2019-02-19T22:15:41.013Z,7.10
2019-02-19T22:18:29.899Z,7.10
2019-02-19T22:21:17.497Z,7.10
2019-02-19T22:23:55.871Z,7.10
2019-02-19T22:26:28.915Z,6.90
2019-02-19T22:29:08.641Z,6.80
2019-02-19T22:31:59.741Z,6.70
2019-02-19T22:34:31.179Z,6.70
2019-02-19T22:37:02.862Z,6.70
2019-02-19T22:39:32.613Z,6.80
2019-02-19T22:42:05.760Z,6.90
2019-02-19T22:44:47.144Z,6.90
2019-02-19T22:47:16.019Z,6.80
2019-02-19T22:49:46.322Z,6.70
2019-02-19T22:52:15.762Z,6.60
2019-02-19T22:54:51.923Z,6.60
2019-02-19T22:57:20.694Z,6.60
2019-02-19T22:59:49.461Z,6.60
2019-02-19T23:02:18.577Z,6.50
2019-02-19T23:04:47.282Z,6.50
2019-02-19T23:07:15.799Z,6.50
2019-02-19T23:09:44.382Z,6.60
2019-02-19T23:12:13.151Z,6.70
2019-02-19T23:14:41.684Z,6.90
2019-02-19T23:17:10.257Z,6.90
2019-02-19T23:19:38.968Z,7.00
2019-02-19T23:22:07.561Z,7.00
2019-02-19T23:24:36.163Z,7.00
2019-02-19T23:27:04.663Z,6.90
2019-02-19T23:29:36.382Z,6.70
2019-02-19T23:32:05.173Z,6.60
2019-02-19T23:34:33.862Z,6.50
2019-02-19T23:37:02.629Z,6.40
2019-02-19T23:39:31.404Z,6.30
2019-02-19T23:42:00.227Z,6.30
2019-02-19T23:44:28.792Z,6.30
2019-02-19T23:46:57.542Z,6.30
2019-02-19T23:49:30.483Z,6.20
2019-02-19T23:51:56.439Z,6.20
2019-02-19T23:54:28.162Z,6.20
2019-02-19T23:56:59.265Z,6.30
2019-02-19T23:59:27.928Z,6.40
